sensor_id;sensor_type;location;lat;lon;timestamp;P1;durP1;ratioP1;P2;durP2;ratioP2
10894;SDS011;5500;49.886;8.074;2022-11-15T00:23:52;10.10;;;8.00;;
10894;SDS011;5500;49.886;8.074;2022-11-15T00:27:37;12.20;;;8.60;;
10894;SDS011;5500;49.886;8.074;2022-11-15T01:30:32;13.53;;;7.20;;
10894;SDS011;5500;49.886;8.074;2022-11-15T01:53:19;7.87;;;6.50;;
10894;SDS011;5500;49.886;8.074;2022-11-15T02:44:12;5.43;;;4.63;;
10894;SDS011;5500;49.886;8.074;2022-11-15T02:52:13;5.93;;;4.30;;
10894;SDS011;5500;49.886;8.074;2022-11-15T02:56:20;6.37;;;4.20;;
10894;SDS011;5500;49.886;8.074;2022-11-15T03:35:13;8.87;;;6.97;;
10894;SDS011;5500;49.886;8.074;2022-11-15T03:38:28;8.10;;;6.13;;
10894;SDS011;5500;49.886;8.074;2022-11-15T03:53:37;7.67;;;6.67;;
10894;SDS011;5500;49.886;8.074;2022-11-15T04:05:27;8.17;;;6.83;;
10894;SDS011;5500;49.886;8.074;2022-11-15T04:08:40;12.10;;;7.63;;
10894;SDS011;5500;49.886;8.074;2022-11-15T04:15:53;8.23;;;7.10;;
10894;SDS011;5500;49.886;8.074;2022-11-15T04:38:29;7.73;;;6.17;;
10894;SDS011;5500;49.886;8.074;2022-11-15T06:20:35;6.57;;;5.53;;
10894;SDS011;5500;49.886;8.074;2022-11-15T07:04:59;6.63;;;5.30;;
10894;SDS011;5500;49.886;8.074;2022-11-15T07:07:27;7.53;;;5.50;;
10894;SDS011;5500;49.886;8.074;2022-11-15T07:09:55;7.83;;;4.93;;
10894;SDS011;5500;49.886;8.074;2022-11-15T07:12:23;5.03;;;4.50;;
10894;SDS011;5500;49.886;8.074;2022-11-15T07:14:50;6.73;;;4.70;;
10894;SDS011;5500;49.886;8.074;2022-11-15T07:17:18;6.70;;;4.70;;
10894;SDS011;5500;49.886;8.074;2022-11-15T07:19:46;6.90;;;4.70;;
10894;SDS011;5500;49.886;8.074;2022-11-15T07:22:13;7.30;;;4.40;;
10894;SDS011;5500;49.886;8.074;2022-11-15T07:24:42;5.00;;;4.50;;
10894;SDS011;5500;49.886;8.074;2022-11-15T07:27:10;5.97;;;4.67;;
10894;SDS011;5500;49.886;8.074;2022-11-15T07:29:38;6.83;;;4.43;;
10894;SDS011;5500;49.886;8.074;2022-11-15T07:32:05;8.27;;;4.50;;
10894;SDS011;5500;49.886;8.074;2022-11-15T07:34:33;7.37;;;4.27;;
10894;SDS011;5500;49.886;8.074;2022-11-15T07:37:01;5.90;;;3.73;;
10894;SDS011;5500;49.886;8.074;2022-11-15T07:39:28;4.80;;;4.33;;
10894;SDS011;5500;49.886;8.074;2022-11-15T07:41:57;6.90;;;4.30;;
10894;SDS011;5500;49.886;8.074;2022-11-15T07:44:39;5.20;;;4.63;;
10894;SDS011;5500;49.886;8.074;2022-11-15T07:47:07;6.00;;;4.97;;
10894;SDS011;5500;49.886;8.074;2022-11-15T07:49:35;6.07;;;5.20;;
10894;SDS011;5500;49.886;8.074;2022-11-15T07:52:03;7.17;;;5.03;;
10894;SDS011;5500;49.886;8.074;2022-11-15T07:54:30;5.60;;;4.80;;
10894;SDS011;5500;49.886;8.074;2022-11-15T07:56:59;5.73;;;4.73;;
10894;SDS011;5500;49.886;8.074;2022-11-15T07:59:32;4.80;;;4.37;;
10894;SDS011;5500;49.886;8.074;2022-11-15T08:02:01;5.93;;;5.13;;
10894;SDS011;5500;49.886;8.074;2022-11-15T08:04:29;6.80;;;5.20;;
10894;SDS011;5500;49.886;8.074;2022-11-15T08:06:56;5.50;;;4.83;;
10894;SDS011;5500;49.886;8.074;2022-11-15T08:09:24;5.67;;;5.07;;
10894;SDS011;5500;49.886;8.074;2022-11-15T08:11:52;5.77;;;5.17;;
10894;SDS011;5500;49.886;8.074;2022-11-15T08:14:21;5.57;;;4.83;;
10894;SDS011;5500;49.886;8.074;2022-11-15T08:16:49;5.70;;;4.90;;
10894;SDS011;5500;49.886;8.074;2022-11-15T08:19:16;6.27;;;5.43;;
10894;SDS011;5500;49.886;8.074;2022-11-15T08:21:44;6.63;;;5.30;;
10894;SDS011;5500;49.886;8.074;2022-11-15T08:24:11;9.20;;;5.53;;
10894;SDS011;5500;49.886;8.074;2022-11-15T08:26:39;8.87;;;5.53;;
10894;SDS011;5500;49.886;8.074;2022-11-15T08:29:07;7.50;;;5.47;;
10894;SDS011;5500;49.886;8.074;2022-11-15T08:31:36;10.00;;;7.83;;
10894;SDS011;5500;49.886;8.074;2022-11-15T08:34:04;9.40;;;8.37;;
10894;SDS011;5500;49.886;8.074;2022-11-15T08:36:32;11.07;;;9.33;;
10894;SDS011;5500;49.886;8.074;2022-11-15T08:39:11;16.23;;;12.73;;
10894;SDS011;5500;49.886;8.074;2022-11-15T08:41:39;14.43;;;12.00;;
10894;SDS011;5500;49.886;8.074;2022-11-15T08:44:06;10.70;;;8.63;;
10894;SDS011;5500;49.886;8.074;2022-11-15T08:46:35;13.00;;;8.53;;
10894;SDS011;5500;49.886;8.074;2022-11-15T08:49:03;11.70;;;8.43;;
10894;SDS011;5500;49.886;8.074;2022-11-15T08:51:30;9.03;;;7.87;;
10894;SDS011;5500;49.886;8.074;2022-11-15T08:53:58;10.00;;;8.20;;
10894;SDS011;5500;49.886;8.074;2022-11-15T08:56:26;10.47;;;8.07;;
10894;SDS011;5500;49.886;8.074;2022-11-15T08:58:53;9.60;;;7.47;;
10894;SDS011;5500;49.886;8.074;2022-11-15T09:01:21;7.07;;;6.37;;
10894;SDS011;5500;49.886;8.074;2022-11-15T09:03:50;6.73;;;6.13;;
10894;SDS011;5500;49.886;8.074;2022-11-15T09:06:18;5.27;;;4.70;;
10894;SDS011;5500;49.886;8.074;2022-11-15T09:08:46;4.60;;;4.20;;
10894;SDS011;5500;49.886;8.074;2022-11-15T09:11:14;4.30;;;3.90;;
10894;SDS011;5500;49.886;8.074;2022-11-15T09:13:46;4.87;;;4.13;;
10894;SDS011;5500;49.886;8.074;2022-11-15T09:16:13;4.77;;;3.67;;
10894;SDS011;5500;49.886;8.074;2022-11-15T09:18:41;4.00;;;3.70;;
10894;SDS011;5500;49.886;8.074;2022-11-15T09:21:10;5.60;;;3.53;;
10894;SDS011;5500;49.886;8.074;2022-11-15T09:23:38;4.40;;;3.63;;
10894;SDS011;5500;49.886;8.074;2022-11-15T09:26:06;5.33;;;3.47;;
10894;SDS011;5500;49.886;8.074;2022-11-15T09:28:35;5.50;;;3.40;;
10894;SDS011;5500;49.886;8.074;2022-11-15T09:31:05;6.50;;;3.33;;
10894;SDS011;5500;49.886;8.074;2022-11-15T09:33:32;4.70;;;4.10;;
10894;SDS011;5500;49.886;8.074;2022-11-15T09:36:01;5.17;;;3.80;;
10894;SDS011;5500;49.886;8.074;2022-11-15T09:38:31;4.13;;;3.40;;
10894;SDS011;5500;49.886;8.074;2022-11-15T09:41:22;4.57;;;3.20;;
10894;SDS011;5500;49.886;8.074;2022-11-15T09:44:00;8.97;;;8.07;;
10894;SDS011;5500;49.886;8.074;2022-11-15T09:46:37;9.70;;;7.67;;
10894;SDS011;5500;49.886;8.074;2022-11-15T09:49:11;9.73;;;8.77;;
10894;SDS011;5500;49.886;8.074;2022-11-15T09:51:42;9.57;;;8.57;;
10894;SDS011;5500;49.886;8.074;2022-11-15T09:54:18;11.47;;;8.27;;
10894;SDS011;5500;49.886;8.074;2022-11-15T09:57:12;10.23;;;7.30;;
10894;SDS011;5500;49.886;8.074;2022-11-15T09:59:45;7.53;;;6.60;;
10894;SDS011;5500;49.886;8.074;2022-11-15T10:02:29;8.43;;;6.17;;
10894;SDS011;5500;49.886;8.074;2022-11-15T10:05:03;10.50;;;7.43;;
10894;SDS011;5500;49.886;8.074;2022-11-15T10:07:34;7.20;;;5.87;;
10894;SDS011;5500;49.886;8.074;2022-11-15T10:10:10;6.83;;;5.83;;
10894;SDS011;5500;49.886;8.074;2022-11-15T10:12:41;7.63;;;6.87;;
10894;SDS011;5500;49.886;8.074;2022-11-15T10:15:15;9.27;;;6.53;;
10894;SDS011;5500;49.886;8.074;2022-11-15T10:20:40;7.80;;;7.03;;
10894;SDS011;5500;49.886;8.074;2022-11-15T10:23:13;9.23;;;6.33;;
10894;SDS011;5500;49.886;8.074;2022-11-15T10:25:43;10.13;;;9.13;;
10894;SDS011;5500;49.886;8.074;2022-11-15T10:28:12;11.30;;;9.23;;
10894;SDS011;5500;49.886;8.074;2022-11-15T10:30:43;8.87;;;7.97;;
10894;SDS011;5500;49.886;8.074;2022-11-15T10:33:13;8.00;;;7.20;;
10894;SDS011;5500;49.886;8.074;2022-11-15T10:35:47;9.43;;;7.47;;
10894;SDS011;5500;49.886;8.074;2022-11-15T10:38:14;8.30;;;7.50;;
10894;SDS011;5500;49.886;8.074;2022-11-15T10:40:43;7.30;;;6.53;;
10894;SDS011;5500;49.886;8.074;2022-11-15T10:43:15;6.93;;;6.23;;
10894;SDS011;5500;49.886;8.074;2022-11-15T10:45:44;7.20;;;6.40;;
10894;SDS011;5500;49.886;8.074;2022-11-15T10:48:20;8.67;;;6.30;;
10894;SDS011;5500;49.886;8.074;2022-11-15T10:50:49;10.20;;;6.23;;
10894;SDS011;5500;49.886;8.074;2022-11-15T10:53:21;8.17;;;6.87;;
10894;SDS011;5500;49.886;8.074;2022-11-15T10:55:54;7.10;;;6.40;;
10894;SDS011;5500;49.886;8.074;2022-11-15T10:58:28;10.27;;;6.23;;
10894;SDS011;5500;49.886;8.074;2022-11-15T11:01:13;10.03;;;6.37;;
10894;SDS011;5500;49.886;8.074;2022-11-15T11:03:43;8.13;;;7.00;;
10894;SDS011;5500;49.886;8.074;2022-11-15T11:06:12;7.50;;;6.67;;
10894;SDS011;5500;49.886;8.074;2022-11-15T11:08:51;7.83;;;6.23;;
10894;SDS011;5500;49.886;8.074;2022-11-15T11:11:22;9.00;;;7.93;;
10894;SDS011;5500;49.886;8.074;2022-11-15T11:13:50;11.13;;;7.40;;
10894;SDS011;5500;49.886;8.074;2022-11-15T11:22:17;8.73;;;7.10;;
10894;SDS011;5500;49.886;8.074;2022-11-15T11:24:49;8.60;;;7.50;;
10894;SDS011;5500;49.886;8.074;2022-11-15T11:27:27;9.03;;;7.20;;
10894;SDS011;5500;49.886;8.074;2022-11-15T11:30:09;11.13;;;7.20;;
10894;SDS011;5500;49.886;8.074;2022-11-15T11:35:27;6.73;;;6.13;;
10894;SDS011;5500;49.886;8.074;2022-11-15T11:38:00;8.23;;;6.63;;
10894;SDS011;5500;49.886;8.074;2022-11-15T11:40:36;8.90;;;6.40;;
10894;SDS011;5500;49.886;8.074;2022-11-15T11:43:11;6.73;;;6.03;;
10894;SDS011;5500;49.886;8.074;2022-11-15T11:45:53;8.90;;;5.90;;
10894;SDS011;5500;49.886;8.074;2022-11-15T11:48:36;6.87;;;6.23;;
10894;SDS011;5500;49.886;8.074;2022-11-15T11:51:12;8.97;;;6.07;;
10894;SDS011;5500;49.886;8.074;2022-11-15T11:53:46;6.37;;;5.70;;
10894;SDS011;5500;49.886;8.074;2022-11-15T11:56:19;7.53;;;6.03;;
10894;SDS011;5500;49.886;8.074;2022-11-15T11:58:52;7.47;;;5.97;;
10894;SDS011;5500;49.886;8.074;2022-11-15T12:01:22;7.00;;;5.70;;
10894;SDS011;5500;49.886;8.074;2022-11-15T12:03:52;12.13;;;5.83;;
10894;SDS011;5500;49.886;8.074;2022-11-15T12:06:29;10.57;;;6.20;;
10894;SDS011;5500;49.886;8.074;2022-11-15T12:09:01;8.17;;;6.00;;
10894;SDS011;5500;49.886;8.074;2022-11-15T12:11:34;7.50;;;6.40;;
10894;SDS011;5500;49.886;8.074;2022-11-15T12:14:08;9.77;;;6.43;;
10894;SDS011;5500;49.886;8.074;2022-11-15T12:16:41;8.20;;;6.17;;
10894;SDS011;5500;49.886;8.074;2022-11-15T12:19:09;6.93;;;6.23;;
10894;SDS011;5500;49.886;8.074;2022-11-15T12:21:39;6.77;;;5.93;;
10894;SDS011;5500;49.886;8.074;2022-11-15T12:24:12;8.63;;;6.50;;
10894;SDS011;5500;49.886;8.074;2022-11-15T12:26:44;7.60;;;6.47;;
10894;SDS011;5500;49.886;8.074;2022-11-15T12:29:16;8.30;;;5.90;;
10894;SDS011;5500;49.886;8.074;2022-11-15T12:31:48;6.17;;;5.67;;
10894;SDS011;5500;49.886;8.074;2022-11-15T12:34:38;6.73;;;5.87;;
10894;SDS011;5500;49.886;8.074;2022-11-15T12:43:03;9.87;;;5.67;;
10894;SDS011;5500;49.886;8.074;2022-11-15T12:45:53;9.03;;;6.63;;
10894;SDS011;5500;49.886;8.074;2022-11-15T12:51:21;7.43;;;6.37;;
10894;SDS011;5500;49.886;8.074;2022-11-15T12:53:50;7.60;;;5.30;;
10894;SDS011;5500;49.886;8.074;2022-11-15T12:56:20;10.77;;;5.83;;
10894;SDS011;5500;49.886;8.074;2022-11-15T12:58:49;9.20;;;7.27;;
10894;SDS011;5500;49.886;8.074;2022-11-15T13:04:23;8.80;;;7.30;;
10894;SDS011;5500;49.886;8.074;2022-11-15T13:06:54;14.20;;;9.17;;
10894;SDS011;5500;49.886;8.074;2022-11-15T13:18:30;8.17;;;6.00;;
10894;SDS011;5500;49.886;8.074;2022-11-15T13:21:05;7.93;;;6.57;;
10894;SDS011;5500;49.886;8.074;2022-11-15T13:24:03;8.70;;;7.80;;
10894;SDS011;5500;49.886;8.074;2022-11-15T13:26:32;13.00;;;8.47;;
10894;SDS011;5500;49.886;8.074;2022-11-15T13:28:59;9.27;;;6.77;;
10894;SDS011;5500;49.886;8.074;2022-11-15T13:31:29;7.33;;;6.63;;
10894;SDS011;5500;49.886;8.074;2022-11-15T13:34:03;9.97;;;7.10;;
10894;SDS011;5500;49.886;8.074;2022-11-15T13:37:03;9.70;;;6.17;;
10894;SDS011;5500;49.886;8.074;2022-11-15T13:39:31;6.37;;;5.70;;
10894;SDS011;5500;49.886;8.074;2022-11-15T13:42:02;9.63;;;5.43;;
10894;SDS011;5500;49.886;8.074;2022-11-15T13:44:32;7.83;;;5.60;;
10894;SDS011;5500;49.886;8.074;2022-11-15T13:47:01;12.93;;;6.03;;
10894;SDS011;5500;49.886;8.074;2022-11-15T13:49:32;6.23;;;5.53;;
10894;SDS011;5500;49.886;8.074;2022-11-15T13:52:01;6.60;;;5.87;;
10894;SDS011;5500;49.886;8.074;2022-11-15T13:54:33;7.97;;;6.33;;
10894;SDS011;5500;49.886;8.074;2022-11-15T13:57:03;6.53;;;5.83;;
10894;SDS011;5500;49.886;8.074;2022-11-15T13:59:33;7.10;;;6.40;;
10894;SDS011;5500;49.886;8.074;2022-11-15T14:02:03;8.43;;;6.87;;
10894;SDS011;5500;49.886;8.074;2022-11-15T14:04:45;10.23;;;7.37;;
10894;SDS011;5500;49.886;8.074;2022-11-15T14:07:15;11.60;;;7.87;;
10894;SDS011;5500;49.886;8.074;2022-11-15T14:09:45;9.67;;;8.00;;
10894;SDS011;5500;49.886;8.074;2022-11-15T14:15:18;7.87;;;6.83;;
10894;SDS011;5500;49.886;8.074;2022-11-15T14:17:51;8.27;;;7.47;;
10894;SDS011;5500;49.886;8.074;2022-11-15T14:20:24;13.53;;;7.83;;
10894;SDS011;5500;49.886;8.074;2022-11-15T14:22:55;9.73;;;8.03;;
10894;SDS011;5500;49.886;8.074;2022-11-15T14:25:24;8.63;;;6.90;;
10894;SDS011;5500;49.886;8.074;2022-11-15T14:28:13;10.03;;;8.87;;
10894;SDS011;5500;49.886;8.074;2022-11-15T14:30:43;10.70;;;7.90;;
10894;SDS011;5500;49.886;8.074;2022-11-15T14:33:20;8.50;;;7.60;;
10894;SDS011;5500;49.886;8.074;2022-11-15T14:35:51;10.67;;;7.40;;
10894;SDS011;5500;49.886;8.074;2022-11-15T14:38:19;7.37;;;6.17;;
10894;SDS011;5500;49.886;8.074;2022-11-15T14:40:47;8.30;;;7.07;;
10894;SDS011;5500;49.886;8.074;2022-11-15T14:43:15;8.80;;;7.30;;
10894;SDS011;5500;49.886;8.074;2022-11-15T14:45:42;8.40;;;6.53;;
10894;SDS011;5500;49.886;8.074;2022-11-15T14:48:10;11.67;;;9.27;;
10894;SDS011;5500;49.886;8.074;2022-11-15T14:50:38;10.33;;;7.57;;
10894;SDS011;5500;49.886;8.074;2022-11-15T14:53:10;11.03;;;8.83;;
10894;SDS011;5500;49.886;8.074;2022-11-15T14:55:39;7.57;;;6.20;;
10894;SDS011;5500;49.886;8.074;2022-11-15T14:58:07;9.17;;;5.77;;
10894;SDS011;5500;49.886;8.074;2022-11-15T15:00:35;8.30;;;6.60;;
10894;SDS011;5500;49.886;8.074;2022-11-15T15:03:05;9.40;;;7.07;;
10894;SDS011;5500;49.886;8.074;2022-11-15T15:05:34;6.60;;;5.80;;
10894;SDS011;5500;49.886;8.074;2022-11-15T15:08:03;10.00;;;6.63;;
10894;SDS011;5500;49.886;8.074;2022-11-15T15:10:35;8.70;;;6.50;;
10894;SDS011;5500;49.886;8.074;2022-11-15T15:13:08;14.13;;;10.67;;
10894;SDS011;5500;49.886;8.074;2022-11-15T15:15:43;13.17;;;9.10;;
10894;SDS011;5500;49.886;8.074;2022-11-15T15:18:10;17.33;;;9.77;;
10894;SDS011;5500;49.886;8.074;2022-11-15T15:20:38;14.07;;;7.07;;
10894;SDS011;5500;49.886;8.074;2022-11-15T15:23:08;9.13;;;5.60;;
10894;SDS011;5500;49.886;8.074;2022-11-15T15:25:43;7.07;;;4.43;;
10894;SDS011;5500;49.886;8.074;2022-11-15T15:28:12;7.00;;;4.93;;
10894;SDS011;5500;49.886;8.074;2022-11-15T15:30:40;5.17;;;4.37;;
10894;SDS011;5500;49.886;8.074;2022-11-15T15:33:08;3.97;;;3.20;;
10894;SDS011;5500;49.886;8.074;2022-11-15T15:35:35;4.10;;;3.70;;
10894;SDS011;5500;49.886;8.074;2022-11-15T15:38:03;4.97;;;4.03;;
10894;SDS011;5500;49.886;8.074;2022-11-15T15:40:32;5.10;;;4.13;;
10894;SDS011;5500;49.886;8.074;2022-11-15T15:43:01;5.70;;;4.20;;
10894;SDS011;5500;49.886;8.074;2022-11-15T15:45:29;4.70;;;4.07;;
10894;SDS011;5500;49.886;8.074;2022-11-15T15:47:58;4.50;;;3.97;;
10894;SDS011;5500;49.886;8.074;2022-11-15T15:50:26;4.13;;;3.73;;
10894;SDS011;5500;49.886;8.074;2022-11-15T15:52:56;4.10;;;3.70;;
10894;SDS011;5500;49.886;8.074;2022-11-15T15:55:24;4.37;;;3.57;;
10894;SDS011;5500;49.886;8.074;2022-11-15T15:57:52;6.20;;;4.23;;
10894;SDS011;5500;49.886;8.074;2022-11-15T16:00:23;5.77;;;3.67;;
10894;SDS011;5500;49.886;8.074;2022-11-15T16:02:51;4.63;;;3.73;;
10894;SDS011;5500;49.886;8.074;2022-11-15T16:05:20;5.57;;;3.87;;
10894;SDS011;5500;49.886;8.074;2022-11-15T16:07:48;6.97;;;4.17;;
10894;SDS011;5500;49.886;8.074;2022-11-15T16:10:20;5.47;;;3.93;;
10894;SDS011;5500;49.886;8.074;2022-11-15T16:12:51;5.40;;;4.00;;
10894;SDS011;5500;49.886;8.074;2022-11-15T16:15:19;4.73;;;3.83;;
10894;SDS011;5500;49.886;8.074;2022-11-15T16:17:50;4.30;;;3.83;;
10894;SDS011;5500;49.886;8.074;2022-11-15T16:20:21;7.80;;;4.60;;
10894;SDS011;5500;49.886;8.074;2022-11-15T16:22:58;6.17;;;4.60;;
10894;SDS011;5500;49.886;8.074;2022-11-15T16:25:34;6.30;;;3.97;;
10894;SDS011;5500;49.886;8.074;2022-11-15T16:28:05;7.13;;;4.23;;
10894;SDS011;5500;49.886;8.074;2022-11-15T16:30:41;7.63;;;4.67;;
10894;SDS011;5500;49.886;8.074;2022-11-15T16:33:08;5.43;;;3.97;;
10894;SDS011;5500;49.886;8.074;2022-11-15T16:35:36;6.00;;;4.33;;
10894;SDS011;5500;49.886;8.074;2022-11-15T16:38:04;5.40;;;3.83;;
10894;SDS011;5500;49.886;8.074;2022-11-15T16:40:32;4.60;;;3.70;;
10894;SDS011;5500;49.886;8.074;2022-11-15T16:43:02;8.67;;;2.97;;
10894;SDS011;5500;49.886;8.074;2022-11-15T16:45:31;5.93;;;3.47;;
10894;SDS011;5500;49.886;8.074;2022-11-15T16:48:02;3.93;;;3.03;;
10894;SDS011;5500;49.886;8.074;2022-11-15T16:50:31;7.03;;;3.03;;
10894;SDS011;5500;49.886;8.074;2022-11-15T16:53:05;4.60;;;3.23;;
10894;SDS011;5500;49.886;8.074;2022-11-15T16:55:33;5.43;;;3.67;;
10894;SDS011;5500;49.886;8.074;2022-11-15T16:58:01;4.93;;;3.50;;
10894;SDS011;5500;49.886;8.074;2022-11-15T17:00:28;6.07;;;3.43;;
10894;SDS011;5500;49.886;8.074;2022-11-15T17:02:56;6.27;;;3.47;;
10894;SDS011;5500;49.886;8.074;2022-11-15T17:05:25;3.47;;;3.17;;
10894;SDS011;5500;49.886;8.074;2022-11-15T17:07:53;3.10;;;2.80;;
10894;SDS011;5500;49.886;8.074;2022-11-15T17:10:22;3.40;;;3.10;;
10894;SDS011;5500;49.886;8.074;2022-11-15T17:12:51;4.67;;;3.03;;
10894;SDS011;5500;49.886;8.074;2022-11-15T17:15:19;4.13;;;3.00;;
10894;SDS011;5500;49.886;8.074;2022-11-15T17:17:50;3.40;;;3.10;;
10894;SDS011;5500;49.886;8.074;2022-11-15T17:20:18;3.70;;;3.07;;
10894;SDS011;5500;49.886;8.074;2022-11-15T17:22:48;3.60;;;3.30;;
10894;SDS011;5500;49.886;8.074;2022-11-15T17:25:17;4.00;;;3.10;;
10894;SDS011;5500;49.886;8.074;2022-11-15T17:27:45;5.60;;;3.40;;
10894;SDS011;5500;49.886;8.074;2022-11-15T17:30:13;5.00;;;3.10;;
10894;SDS011;5500;49.886;8.074;2022-11-15T17:32:41;3.77;;;3.13;;
10894;SDS011;5500;49.886;8.074;2022-11-15T17:35:10;6.70;;;3.17;;
10894;SDS011;5500;49.886;8.074;2022-11-15T17:37:41;4.63;;;3.10;;
10894;SDS011;5500;49.886;8.074;2022-11-15T17:40:10;4.63;;;3.17;;
10894;SDS011;5500;49.886;8.074;2022-11-15T17:42:39;4.10;;;3.20;;
10894;SDS011;5500;49.886;8.074;2022-11-15T17:45:07;6.10;;;3.20;;
10894;SDS011;5500;49.886;8.074;2022-11-15T17:47:36;3.23;;;2.90;;
10894;SDS011;5500;49.886;8.074;2022-11-15T17:50:04;4.73;;;3.80;;
10894;SDS011;5500;49.886;8.074;2022-11-15T17:52:32;5.80;;;4.93;;
10894;SDS011;5500;49.886;8.074;2022-11-15T17:54:59;5.93;;;4.00;;
10894;SDS011;5500;49.886;8.074;2022-11-15T17:57:28;6.20;;;4.03;;
10894;SDS011;5500;49.886;8.074;2022-11-15T17:59:56;4.63;;;3.63;;
10894;SDS011;5500;49.886;8.074;2022-11-15T18:02:23;7.97;;;6.13;;
10894;SDS011;5500;49.886;8.074;2022-11-15T18:04:51;6.40;;;5.77;;
10894;SDS011;5500;49.886;8.074;2022-11-15T18:07:19;5.03;;;4.37;;
10894;SDS011;5500;49.886;8.074;2022-11-15T18:09:46;5.47;;;4.97;;
10894;SDS011;5500;49.886;8.074;2022-11-15T18:12:14;5.37;;;4.67;;
10894;SDS011;5500;49.886;8.074;2022-11-15T18:14:43;6.83;;;6.13;;
10894;SDS011;5500;49.886;8.074;2022-11-15T18:17:11;6.77;;;5.43;;
10894;SDS011;5500;49.886;8.074;2022-11-15T18:19:38;6.50;;;4.70;;
10894;SDS011;5500;49.886;8.074;2022-11-15T18:22:06;5.03;;;4.47;;
10894;SDS011;5500;49.886;8.074;2022-11-15T18:24:35;7.20;;;4.40;;
10894;SDS011;5500;49.886;8.074;2022-11-15T18:27:04;8.33;;;4.90;;
10894;SDS011;5500;49.886;8.074;2022-11-15T18:29:32;7.93;;;4.90;;
10894;SDS011;5500;49.886;8.074;2022-11-15T18:32:04;4.90;;;4.33;;
10894;SDS011;5500;49.886;8.074;2022-11-15T18:34:37;8.13;;;4.50;;
10894;SDS011;5500;49.886;8.074;2022-11-15T18:37:04;7.30;;;5.03;;
10894;SDS011;5500;49.886;8.074;2022-11-15T18:39:32;4.70;;;4.10;;
10894;SDS011;5500;49.886;8.074;2022-11-15T18:41:59;6.10;;;4.57;;
10894;SDS011;5500;49.886;8.074;2022-11-15T18:44:27;7.10;;;4.70;;
10894;SDS011;5500;49.886;8.074;2022-11-15T18:46:56;4.77;;;4.20;;
10894;SDS011;5500;49.886;8.074;2022-11-15T18:49:25;8.10;;;4.57;;
10894;SDS011;5500;49.886;8.074;2022-11-15T18:51:53;5.97;;;4.47;;
10894;SDS011;5500;49.886;8.074;2022-11-15T18:54:21;5.60;;;4.73;;
10894;SDS011;5500;49.886;8.074;2022-11-15T18:56:56;5.07;;;4.53;;
10894;SDS011;5500;49.886;8.074;2022-11-15T18:59:23;6.23;;;4.73;;
10894;SDS011;5500;49.886;8.074;2022-11-15T19:01:52;6.37;;;5.00;;
10894;SDS011;5500;49.886;8.074;2022-11-15T19:04:21;7.17;;;5.77;;
10894;SDS011;5500;49.886;8.074;2022-11-15T19:06:50;6.90;;;5.57;;
10894;SDS011;5500;49.886;8.074;2022-11-15T19:09:18;7.50;;;5.80;;
10894;SDS011;5500;49.886;8.074;2022-11-15T19:11:46;6.77;;;5.30;;
10894;SDS011;5500;49.886;8.074;2022-11-15T19:14:16;7.93;;;5.63;;
10894;SDS011;5500;49.886;8.074;2022-11-15T19:16:45;5.83;;;5.07;;
10894;SDS011;5500;49.886;8.074;2022-11-15T19:19:16;6.17;;;5.30;;
10894;SDS011;5500;49.886;8.074;2022-11-15T19:21:44;8.57;;;5.23;;
10894;SDS011;5500;49.886;8.074;2022-11-15T19:24:13;9.73;;;5.13;;
10894;SDS011;5500;49.886;8.074;2022-11-15T19:26:41;6.90;;;5.23;;
10894;SDS011;5500;49.886;8.074;2022-11-15T19:29:10;10.47;;;8.13;;
10894;SDS011;5500;49.886;8.074;2022-11-15T19:31:38;12.80;;;8.47;;
10894;SDS011;5500;49.886;8.074;2022-11-15T19:34:06;9.33;;;7.30;;
10894;SDS011;5500;49.886;8.074;2022-11-15T19:36:35;8.50;;;6.00;;
10894;SDS011;5500;49.886;8.074;2022-11-15T19:39:04;11.20;;;7.40;;
10894;SDS011;5500;49.886;8.074;2022-11-15T19:41:36;8.43;;;6.63;;
10894;SDS011;5500;49.886;8.074;2022-11-15T19:44:04;10.50;;;6.77;;
10894;SDS011;5500;49.886;8.074;2022-11-15T19:46:33;11.43;;;10.00;;
10894;SDS011;5500;49.886;8.074;2022-11-15T19:49:00;9.83;;;8.77;;
10894;SDS011;5500;49.886;8.074;2022-11-15T19:51:28;11.83;;;7.87;;
10894;SDS011;5500;49.886;8.074;2022-11-15T19:53:57;14.13;;;7.53;;
10894;SDS011;5500;49.886;8.074;2022-11-15T19:56:26;8.80;;;6.10;;
10894;SDS011;5500;49.886;8.074;2022-11-15T19:58:55;6.77;;;5.33;;
10894;SDS011;5500;49.886;8.074;2022-11-15T20:01:23;7.70;;;5.37;;
10894;SDS011;5500;49.886;8.074;2022-11-15T20:03:53;7.33;;;5.17;;
10894;SDS011;5500;49.886;8.074;2022-11-15T20:06:24;6.33;;;5.60;;
10894;SDS011;5500;49.886;8.074;2022-11-15T20:08:52;8.77;;;6.07;;
10894;SDS011;5500;49.886;8.074;2022-11-15T20:11:20;10.57;;;6.83;;
10894;SDS011;5500;49.886;8.074;2022-11-15T20:13:47;12.40;;;8.37;;
10894;SDS011;5500;49.886;8.074;2022-11-15T20:16:17;10.23;;;7.70;;
10894;SDS011;5500;49.886;8.074;2022-11-15T20:18:46;7.97;;;6.70;;
10894;SDS011;5500;49.886;8.074;2022-11-15T20:21:14;8.60;;;7.13;;
10894;SDS011;5500;49.886;8.074;2022-11-15T20:23:42;8.30;;;6.43;;
10894;SDS011;5500;49.886;8.074;2022-11-15T20:26:10;8.10;;;7.23;;
10894;SDS011;5500;49.886;8.074;2022-11-15T20:28:38;9.97;;;7.80;;
10894;SDS011;5500;49.886;8.074;2022-11-15T20:31:06;9.80;;;7.67;;
10894;SDS011;5500;49.886;8.074;2022-11-15T20:33:35;16.97;;;7.27;;
10894;SDS011;5500;49.886;8.074;2022-11-15T20:36:03;9.53;;;6.80;;
10894;SDS011;5500;49.886;8.074;2022-11-15T20:38:31;8.00;;;6.10;;
10894;SDS011;5500;49.886;8.074;2022-11-15T20:41:00;9.93;;;7.10;;
10894;SDS011;5500;49.886;8.074;2022-11-15T20:43:28;9.43;;;7.60;;
10894;SDS011;5500;49.886;8.074;2022-11-15T20:45:55;12.80;;;9.57;;
10894;SDS011;5500;49.886;8.074;2022-11-15T20:48:23;12.40;;;10.43;;
10894;SDS011;5500;49.886;8.074;2022-11-15T20:50:58;11.83;;;9.67;;
10894;SDS011;5500;49.886;8.074;2022-11-15T20:53:29;11.20;;;9.97;;
10894;SDS011;5500;49.886;8.074;2022-11-15T20:56:01;13.63;;;10.27;;
10894;SDS011;5500;49.886;8.074;2022-11-15T20:58:30;11.80;;;10.43;;
10894;SDS011;5500;49.886;8.074;2022-11-15T21:00:58;8.77;;;7.10;;
10894;SDS011;5500;49.886;8.074;2022-11-15T21:03:26;8.37;;;6.60;;
10894;SDS011;5500;49.886;8.074;2022-11-15T21:05:55;9.23;;;6.53;;
10894;SDS011;5500;49.886;8.074;2022-11-15T21:08:22;8.47;;;6.80;;
10894;SDS011;5500;49.886;8.074;2022-11-15T21:10:51;8.17;;;5.67;;
10894;SDS011;5500;49.886;8.074;2022-11-15T21:13:37;9.00;;;6.47;;
10894;SDS011;5500;49.886;8.074;2022-11-15T21:16:05;9.80;;;6.27;;
10894;SDS011;5500;49.886;8.074;2022-11-15T21:18:33;8.27;;;6.20;;
10894;SDS011;5500;49.886;8.074;2022-11-15T21:21:03;8.73;;;6.10;;
10894;SDS011;5500;49.886;8.074;2022-11-15T21:23:31;6.73;;;5.70;;
10894;SDS011;5500;49.886;8.074;2022-11-15T21:25:59;7.13;;;5.90;;
10894;SDS011;5500;49.886;8.074;2022-11-15T21:28:27;6.40;;;5.80;;
10894;SDS011;5500;49.886;8.074;2022-11-15T21:30:55;10.33;;;8.83;;
10894;SDS011;5500;49.886;8.074;2022-11-15T21:33:23;10.23;;;9.23;;
10894;SDS011;5500;49.886;8.074;2022-11-15T21:35:52;11.87;;;8.20;;
10894;SDS011;5500;49.886;8.074;2022-11-15T21:38:22;10.37;;;6.23;;
10894;SDS011;5500;49.886;8.074;2022-11-15T21:40:50;9.57;;;6.67;;
10894;SDS011;5500;49.886;8.074;2022-11-15T21:43:19;6.93;;;6.23;;
10894;SDS011;5500;49.886;8.074;2022-11-15T21:45:53;8.57;;;6.43;;
10894;SDS011;5500;49.886;8.074;2022-11-15T21:48:22;6.83;;;5.97;;
10894;SDS011;5500;49.886;8.074;2022-11-15T21:50:53;8.60;;;5.57;;
10894;SDS011;5500;49.886;8.074;2022-11-15T21:53:23;7.27;;;5.90;;
10894;SDS011;5500;49.886;8.074;2022-11-15T21:55:51;6.37;;;5.77;;
10894;SDS011;5500;49.886;8.074;2022-11-15T21:58:19;7.27;;;5.40;;
10894;SDS011;5500;49.886;8.074;2022-11-15T22:00:47;5.90;;;5.30;;
10894;SDS011;5500;49.886;8.074;2022-11-15T22:03:33;8.53;;;5.27;;
10894;SDS011;5500;49.886;8.074;2022-11-15T22:06:01;5.70;;;5.00;;
10894;SDS011;5500;49.886;8.074;2022-11-15T22:08:30;6.03;;;5.43;;
10894;SDS011;5500;49.886;8.074;2022-11-15T22:10:58;6.67;;;5.50;;
10894;SDS011;5500;49.886;8.074;2022-11-15T22:13:25;11.97;;;5.57;;
10894;SDS011;5500;49.886;8.074;2022-11-15T22:15:53;8.37;;;4.97;;
10894;SDS011;5500;49.886;8.074;2022-11-15T22:18:21;7.47;;;5.20;;